Terminal Aerodrome Forecast
Issued by NWS Wichita, KS

Home | Current Version | Previous Version | Text Only | Print | Product List | Glossary Off
Versions: 1 2 3 4 5 6 7 8 9 10 11 12 13 14 15 16 17 18

000
FTUS43 KICT 130500
TAFICT
TAF
KICT 130522Z 1306/1406 17016G24KT P6SM SCT100 BKN150
     FM131600 21015G24KT P6SM SCT030 BKN060
     FM132200 35026G35KT P6SM VCSH OVC014=

USA.gov is the U.S. government's official web portal to all federal, state and local government web resources and services.